sensor_id;sensor_type;location;lat;lon;timestamp;temperature;humidity
17348;DHT22;8791;50.876;4.342;2024-02-21T00:01:40;9.80;99.90
17348;DHT22;8791;50.876;4.342;2024-02-21T00:04:07;9.80;99.90
17348;DHT22;8791;50.876;4.342;2024-02-21T00:06:34;9.70;99.90
17348;DHT22;8791;50.876;4.342;2024-02-21T00:09:01;9.70;99.90
17348;DHT22;8791;50.876;4.342;2024-02-21T00:11:28;9.80;99.90
17348;DHT22;8791;50.876;4.342;2024-02-21T00:13:55;9.70;99.90
17348;DHT22;8791;50.876;4.342;2024-02-21T00:16:22;9.70;99.90
17348;DHT22;8791;50.876;4.342;2024-02-21T00:18:50;9.70;99.90
17348;DHT22;8791;50.876;4.342;2024-02-21T00:21:17;9.60;99.90
17348;DHT22;8791;50.876;4.342;2024-02-21T00:23:44;9.60;99.90
17348;DHT22;8791;50.876;4.342;2024-02-21T00:26:12;9.50;99.90
17348;DHT22;8791;50.876;4.342;2024-02-21T00:28:39;9.40;99.90
17348;DHT22;8791;50.876;4.342;2024-02-21T00:31:06;9.60;99.90
17348;DHT22;8791;50.876;4.342;2024-02-21T00:33:33;9.60;99.90
17348;DHT22;8791;50.876;4.342;2024-02-21T00:36:01;9.50;99.90
17348;DHT22;8791;50.876;4.342;2024-02-21T00:38:28;9.50;99.90
17348;DHT22;8791;50.876;4.342;2024-02-21T00:40:55;9.50;99.90
17348;DHT22;8791;50.876;4.342;2024-02-21T00:43:22;9.50;99.90
17348;DHT22;8791;50.876;4.342;2024-02-21T00:45:49;9.70;99.90
17348;DHT22;8791;50.876;4.342;2024-02-21T00:48:17;9.60;99.90
17348;DHT22;8791;50.876;4.342;2024-02-21T00:50:43;9.50;99.90
17348;DHT22;8791;50.876;4.342;2024-02-21T00:53:11;9.60;99.90
17348;DHT22;8791;50.876;4.342;2024-02-21T00:55:38;9.70;99.90
17348;DHT22;8791;50.876;4.342;2024-02-21T00:58:05;9.60;99.90
17348;DHT22;8791;50.876;4.342;2024-02-21T01:00:32;9.60;99.90
17348;DHT22;8791;50.876;4.342;2024-02-21T01:02:59;9.50;99.90
17348;DHT22;8791;50.876;4.342;2024-02-21T01:05:26;9.60;99.90
17348;DHT22;8791;50.876;4.342;2024-02-21T01:07:54;9.60;99.90
17348;DHT22;8791;50.876;4.342;2024-02-21T01:10:25;9.60;99.90
17348;DHT22;8791;50.876;4.342;2024-02-21T01:12:52;9.60;99.90
17348;DHT22;8791;50.876;4.342;2024-02-21T01:15:20;9.70;99.90
17348;DHT22;8791;50.876;4.342;2024-02-21T01:17:47;9.70;99.90
17348;DHT22;8791;50.876;4.342;2024-02-21T01:20:15;9.50;99.90
17348;DHT22;8791;50.876;4.342;2024-02-21T01:22:43;9.50;99.90
17348;DHT22;8791;50.876;4.342;2024-02-21T01:25:09;9.40;99.90
17348;DHT22;8791;50.876;4.342;2024-02-21T01:27:38;9.40;99.90
17348;DHT22;8791;50.876;4.342;2024-02-21T01:30:06;9.40;99.90
17348;DHT22;8791;50.876;4.342;2024-02-21T01:32:33;9.40;99.90
17348;DHT22;8791;50.876;4.342;2024-02-21T01:34:59;9.40;99.90
17348;DHT22;8791;50.876;4.342;2024-02-21T01:37:28;9.40;99.90
17348;DHT22;8791;50.876;4.342;2024-02-21T01:39:55;9.50;99.90
17348;DHT22;8791;50.876;4.342;2024-02-21T01:42:22;9.50;99.90
17348;DHT22;8791;50.876;4.342;2024-02-21T01:44:50;9.40;99.90
17348;DHT22;8791;50.876;4.342;2024-02-21T01:47:17;9.40;99.90
17348;DHT22;8791;50.876;4.342;2024-02-21T01:49:44;9.30;99.90
17348;DHT22;8791;50.876;4.342;2024-02-21T01:52:14;9.40;99.90
17348;DHT22;8791;50.876;4.342;2024-02-21T01:54:43;9.30;99.90
17348;DHT22;8791;50.876;4.342;2024-02-21T01:57:13;9.30;99.90
17348;DHT22;8791;50.876;4.342;2024-02-21T01:59:40;9.30;99.90
17348;DHT22;8791;50.876;4.342;2024-02-21T02:02:08;9.40;99.90
17348;DHT22;8791;50.876;4.342;2024-02-21T02:04:37;9.30;99.90
17348;DHT22;8791;50.876;4.342;2024-02-21T02:07:07;9.30;99.90
17348;DHT22;8791;50.876;4.342;2024-02-21T02:09:34;9.40;99.90
17348;DHT22;8791;50.876;4.342;2024-02-21T02:12:03;9.30;99.90
17348;DHT22;8791;50.876;4.342;2024-02-21T02:14:30;9.30;99.90
17348;DHT22;8791;50.876;4.342;2024-02-21T02:16:57;9.30;99.90
17348;DHT22;8791;50.876;4.342;2024-02-21T02:19:27;9.30;99.90
17348;DHT22;8791;50.876;4.342;2024-02-21T02:22:00;9.40;99.90
17348;DHT22;8791;50.876;4.342;2024-02-21T02:24:30;9.40;99.90
17348;DHT22;8791;50.876;4.342;2024-02-21T02:26:57;9.40;99.90
17348;DHT22;8791;50.876;4.342;2024-02-21T02:29:24;9.40;99.90
17348;DHT22;8791;50.876;4.342;2024-02-21T02:31:51;9.40;99.90
17348;DHT22;8791;50.876;4.342;2024-02-21T02:34:18;9.30;99.90
17348;DHT22;8791;50.876;4.342;2024-02-21T02:36:45;9.40;99.90
17348;DHT22;8791;50.876;4.342;2024-02-21T02:39:14;9.40;99.90
17348;DHT22;8791;50.876;4.342;2024-02-21T02:41:42;9.30;99.90
17348;DHT22;8791;50.876;4.342;2024-02-21T02:44:09;9.30;99.90
17348;DHT22;8791;50.876;4.342;2024-02-21T02:46:36;9.20;99.90
17348;DHT22;8791;50.876;4.342;2024-02-21T02:49:03;9.20;99.90
17348;DHT22;8791;50.876;4.342;2024-02-21T02:51:29;9.30;99.90
17348;DHT22;8791;50.876;4.342;2024-02-21T02:53:56;9.30;99.90
17348;DHT22;8791;50.876;4.342;2024-02-21T02:56:23;9.30;99.90
17348;DHT22;8791;50.876;4.342;2024-02-21T02:58:52;9.20;99.90
17348;DHT22;8791;50.876;4.342;2024-02-21T03:01:19;9.20;99.90
17348;DHT22;8791;50.876;4.342;2024-02-21T03:03:46;9.20;99.90
17348;DHT22;8791;50.876;4.342;2024-02-21T03:06:13;9.30;99.90
17348;DHT22;8791;50.876;4.342;2024-02-21T03:08:41;9.40;99.90
17348;DHT22;8791;50.876;4.342;2024-02-21T03:11:08;9.40;99.90
17348;DHT22;8791;50.876;4.342;2024-02-21T03:13:36;9.40;99.90
17348;DHT22;8791;50.876;4.342;2024-02-21T03:16:05;9.40;99.90
17348;DHT22;8791;50.876;4.342;2024-02-21T03:18:32;9.30;99.90
17348;DHT22;8791;50.876;4.342;2024-02-21T03:20:59;9.20;99.90
17348;DHT22;8791;50.876;4.342;2024-02-21T03:23:25;9.20;99.90
17348;DHT22;8791;50.876;4.342;2024-02-21T03:25:52;9.20;99.90
17348;DHT22;8791;50.876;4.342;2024-02-21T03:28:19;9.30;99.90
17348;DHT22;8791;50.876;4.342;2024-02-21T03:30:46;9.30;99.90
17348;DHT22;8791;50.876;4.342;2024-02-21T03:33:14;9.30;99.90
17348;DHT22;8791;50.876;4.342;2024-02-21T03:35:41;9.20;99.90
17348;DHT22;8791;50.876;4.342;2024-02-21T03:38:08;9.20;99.90
17348;DHT22;8791;50.876;4.342;2024-02-21T03:40:35;9.20;99.90
17348;DHT22;8791;50.876;4.342;2024-02-21T03:43:01;9.20;99.90
17348;DHT22;8791;50.876;4.342;2024-02-21T03:45:28;9.20;99.90
17348;DHT22;8791;50.876;4.342;2024-02-21T03:47:55;9.20;99.90
17348;DHT22;8791;50.876;4.342;2024-02-21T03:50:23;9.30;99.90
17348;DHT22;8791;50.876;4.342;2024-02-21T03:52:51;9.30;99.90
17348;DHT22;8791;50.876;4.342;2024-02-21T03:55:18;9.30;99.90
17348;DHT22;8791;50.876;4.342;2024-02-21T03:57:45;9.30;99.90
17348;DHT22;8791;50.876;4.342;2024-02-21T04:00:12;9.30;99.90
17348;DHT22;8791;50.876;4.342;2024-02-21T04:02:39;9.30;99.90
17348;DHT22;8791;50.876;4.342;2024-02-21T04:05:06;9.40;99.90
17348;DHT22;8791;50.876;4.342;2024-02-21T04:07:37;9.30;99.90
17348;DHT22;8791;50.876;4.342;2024-02-21T04:10:05;9.30;99.90
17348;DHT22;8791;50.876;4.342;2024-02-21T04:12:32;9.40;99.90
17348;DHT22;8791;50.876;4.342;2024-02-21T04:14:59;9.40;99.90
17348;DHT22;8791;50.876;4.342;2024-02-21T04:17:26;9.40;99.90
17348;DHT22;8791;50.876;4.342;2024-02-21T04:20:02;9.40;99.90
17348;DHT22;8791;50.876;4.342;2024-02-21T04:22:30;9.40;99.90
17348;DHT22;8791;50.876;4.342;2024-02-21T04:24:59;9.50;99.90
17348;DHT22;8791;50.876;4.342;2024-02-21T04:27:26;9.40;99.90
17348;DHT22;8791;50.876;4.342;2024-02-21T04:29:53;9.40;99.90
17348;DHT22;8791;50.876;4.342;2024-02-21T04:32:20;9.30;99.90
17348;DHT22;8791;50.876;4.342;2024-02-21T04:34:47;9.40;99.90
17348;DHT22;8791;50.876;4.342;2024-02-21T04:37:14;9.40;99.90
17348;DHT22;8791;50.876;4.342;2024-02-21T04:39:41;9.30;99.90
17348;DHT22;8791;50.876;4.342;2024-02-21T04:42:09;9.40;99.90
17348;DHT22;8791;50.876;4.342;2024-02-21T04:44:36;9.30;99.90
17348;DHT22;8791;50.876;4.342;2024-02-21T04:47:03;9.40;99.90
17348;DHT22;8791;50.876;4.342;2024-02-21T04:49:30;9.50;99.90
17348;DHT22;8791;50.876;4.342;2024-02-21T04:51:57;9.50;99.90
17348;DHT22;8791;50.876;4.342;2024-02-21T04:54:24;9.50;99.90
17348;DHT22;8791;50.876;4.342;2024-02-21T04:56:51;9.50;99.90
17348;DHT22;8791;50.876;4.342;2024-02-21T04:59:19;9.50;99.90
17348;DHT22;8791;50.876;4.342;2024-02-21T05:01:46;9.50;99.90
17348;DHT22;8791;50.876;4.342;2024-02-21T05:04:13;9.40;99.90
17348;DHT22;8791;50.876;4.342;2024-02-21T05:06:40;9.50;99.90
17348;DHT22;8791;50.876;4.342;2024-02-21T05:09:08;9.50;99.90
17348;DHT22;8791;50.876;4.342;2024-02-21T05:11:36;9.50;99.90
17348;DHT22;8791;50.876;4.342;2024-02-21T05:14:03;9.50;99.90
17348;DHT22;8791;50.876;4.342;2024-02-21T05:16:31;9.50;99.90
17348;DHT22;8791;50.876;4.342;2024-02-21T05:18:58;9.50;99.90
17348;DHT22;8791;50.876;4.342;2024-02-21T05:21:25;9.50;99.90
17348;DHT22;8791;50.876;4.342;2024-02-21T05:23:53;9.50;99.90
17348;DHT22;8791;50.876;4.342;2024-02-21T05:26:21;9.40;99.90
17348;DHT22;8791;50.876;4.342;2024-02-21T05:28:48;9.30;99.90
17348;DHT22;8791;50.876;4.342;2024-02-21T05:31:15;9.40;99.90
17348;DHT22;8791;50.876;4.342;2024-02-21T05:33:43;9.40;99.90
17348;DHT22;8791;50.876;4.342;2024-02-21T05:36:10;9.40;99.90
17348;DHT22;8791;50.876;4.342;2024-02-21T05:38:38;9.40;99.90
17348;DHT22;8791;50.876;4.342;2024-02-21T05:41:05;9.30;99.90
17348;DHT22;8791;50.876;4.342;2024-02-21T05:43:32;9.40;99.90
17348;DHT22;8791;50.876;4.342;2024-02-21T05:45:59;9.40;99.90
17348;DHT22;8791;50.876;4.342;2024-02-21T05:48:26;9.40;99.90
17348;DHT22;8791;50.876;4.342;2024-02-21T05:50:54;9.50;99.90
17348;DHT22;8791;50.876;4.342;2024-02-21T05:53:21;9.50;99.90
17348;DHT22;8791;50.876;4.342;2024-02-21T05:55:47;9.50;99.90
17348;DHT22;8791;50.876;4.342;2024-02-21T05:58:14;9.60;99.90
17348;DHT22;8791;50.876;4.342;2024-02-21T06:00:41;9.70;99.90
17348;DHT22;8791;50.876;4.342;2024-02-21T06:03:07;9.80;99.90
17348;DHT22;8791;50.876;4.342;2024-02-21T06:05:37;9.90;99.90
17348;DHT22;8791;50.876;4.342;2024-02-21T06:08:07;9.90;99.90
17348;DHT22;8791;50.876;4.342;2024-02-21T06:10:34;9.80;99.90
17348;DHT22;8791;50.876;4.342;2024-02-21T06:13:01;9.80;99.90
17348;DHT22;8791;50.876;4.342;2024-02-21T06:15:28;9.80;99.90
17348;DHT22;8791;50.876;4.342;2024-02-21T06:17:56;9.80;99.90
17348;DHT22;8791;50.876;4.342;2024-02-21T06:20:23;9.80;99.90
17348;DHT22;8791;50.876;4.342;2024-02-21T06:22:50;9.90;99.90
17348;DHT22;8791;50.876;4.342;2024-02-21T06:25:19;9.80;99.90
17348;DHT22;8791;50.876;4.342;2024-02-21T06:27:46;9.80;99.90
17348;DHT22;8791;50.876;4.342;2024-02-21T06:30:13;9.60;99.90
17348;DHT22;8791;50.876;4.342;2024-02-21T06:32:40;9.50;99.90
17348;DHT22;8791;50.876;4.342;2024-02-21T06:35:07;9.60;99.90
17348;DHT22;8791;50.876;4.342;2024-02-21T06:37:34;9.60;99.90
17348;DHT22;8791;50.876;4.342;2024-02-21T06:40:01;9.70;99.90
17348;DHT22;8791;50.876;4.342;2024-02-21T06:42:30;9.70;99.90
17348;DHT22;8791;50.876;4.342;2024-02-21T06:44:57;9.60;99.90
17348;DHT22;8791;50.876;4.342;2024-02-21T06:47:24;9.50;99.90
17348;DHT22;8791;50.876;4.342;2024-02-21T06:49:52;9.50;99.90
17348;DHT22;8791;50.876;4.342;2024-02-21T06:52:19;9.50;99.90
17348;DHT22;8791;50.876;4.342;2024-02-21T06:54:46;9.50;99.90
17348;DHT22;8791;50.876;4.342;2024-02-21T06:57:13;9.40;99.90
17348;DHT22;8791;50.876;4.342;2024-02-21T06:59:42;9.40;99.90
17348;DHT22;8791;50.876;4.342;2024-02-21T07:02:09;9.40;99.90
17348;DHT22;8791;50.876;4.342;2024-02-21T07:04:36;9.40;99.90
17348;DHT22;8791;50.876;4.342;2024-02-21T07:07:04;9.40;99.90
17348;DHT22;8791;50.876;4.342;2024-02-21T07:09:34;9.40;99.90
17348;DHT22;8791;50.876;4.342;2024-02-21T07:12:01;9.40;99.90
17348;DHT22;8791;50.876;4.342;2024-02-21T07:14:29;9.30;99.90
17348;DHT22;8791;50.876;4.342;2024-02-21T07:16:57;9.30;99.90
17348;DHT22;8791;50.876;4.342;2024-02-21T07:19:24;9.30;99.90
17348;DHT22;8791;50.876;4.342;2024-02-21T07:21:51;9.40;99.90
17348;DHT22;8791;50.876;4.342;2024-02-21T07:24:18;9.20;99.90
17348;DHT22;8791;50.876;4.342;2024-02-21T07:26:45;9.10;99.90
17348;DHT22;8791;50.876;4.342;2024-02-21T07:29:12;9.00;99.90
17348;DHT22;8791;50.876;4.342;2024-02-21T07:31:40;9.10;99.90
17348;DHT22;8791;50.876;4.342;2024-02-21T07:34:09;9.10;99.90
17348;DHT22;8791;50.876;4.342;2024-02-21T07:36:37;9.20;99.90
17348;DHT22;8791;50.876;4.342;2024-02-21T07:39:04;9.20;99.90
17348;DHT22;8791;50.876;4.342;2024-02-21T07:41:31;9.10;99.90
17348;DHT22;8791;50.876;4.342;2024-02-21T07:44:00;9.20;99.90
17348;DHT22;8791;50.876;4.342;2024-02-21T07:46:27;9.10;99.90
17348;DHT22;8791;50.876;4.342;2024-02-21T07:48:54;9.10;99.90
17348;DHT22;8791;50.876;4.342;2024-02-21T07:51:23;9.10;99.90
17348;DHT22;8791;50.876;4.342;2024-02-21T07:53:54;9.20;99.90
17348;DHT22;8791;50.876;4.342;2024-02-21T07:56:21;9.20;99.90
17348;DHT22;8791;50.876;4.342;2024-02-21T07:58:48;9.30;99.90
17348;DHT22;8791;50.876;4.342;2024-02-21T08:01:18;9.30;99.90
17348;DHT22;8791;50.876;4.342;2024-02-21T08:03:46;9.30;99.90
17348;DHT22;8791;50.876;4.342;2024-02-21T08:06:13;9.30;99.90
17348;DHT22;8791;50.876;4.342;2024-02-21T08:08:41;9.30;99.90
17348;DHT22;8791;50.876;4.342;2024-02-21T08:11:08;9.40;99.90
17348;DHT22;8791;50.876;4.342;2024-02-21T08:13:35;9.40;99.90
17348;DHT22;8791;50.876;4.342;2024-02-21T08:16:03;9.50;99.90
17348;DHT22;8791;50.876;4.342;2024-02-21T08:18:30;9.40;99.90
17348;DHT22;8791;50.876;4.342;2024-02-21T08:20:57;9.40;99.90
17348;DHT22;8791;50.876;4.342;2024-02-21T08:23:23;9.50;99.90
17348;DHT22;8791;50.876;4.342;2024-02-21T08:25:52;9.50;99.90
17348;DHT22;8791;50.876;4.342;2024-02-21T08:28:19;9.50;99.90
17348;DHT22;8791;50.876;4.342;2024-02-21T08:30:45;9.50;99.90
17348;DHT22;8791;50.876;4.342;2024-02-21T08:33:14;9.40;99.90
17348;DHT22;8791;50.876;4.342;2024-02-21T08:35:42;9.40;99.90
17348;DHT22;8791;50.876;4.342;2024-02-21T08:38:09;9.40;99.90
17348;DHT22;8791;50.876;4.342;2024-02-21T08:40:36;9.40;99.90
17348;DHT22;8791;50.876;4.342;2024-02-21T08:43:05;9.40;99.90
17348;DHT22;8791;50.876;4.342;2024-02-21T08:45:31;9.50;99.90
17348;DHT22;8791;50.876;4.342;2024-02-21T08:47:58;9.50;99.90
17348;DHT22;8791;50.876;4.342;2024-02-21T08:50:30;9.60;99.90
17348;DHT22;8791;50.876;4.342;2024-02-21T08:52:57;9.60;99.90
17348;DHT22;8791;50.876;4.342;2024-02-21T08:55:24;9.60;99.90
17348;DHT22;8791;50.876;4.342;2024-02-21T08:57:51;9.80;99.90
17348;DHT22;8791;50.876;4.342;2024-02-21T09:00:20;9.90;99.90
17348;DHT22;8791;50.876;4.342;2024-02-21T09:02:49;9.80;99.90
17348;DHT22;8791;50.876;4.342;2024-02-21T09:05:16;9.90;99.90
17348;DHT22;8791;50.876;4.342;2024-02-21T09:07:44;9.90;99.90
17348;DHT22;8791;50.876;4.342;2024-02-21T09:10:10;9.80;99.90
17348;DHT22;8791;50.876;4.342;2024-02-21T09:12:37;9.90;99.90
17348;DHT22;8791;50.876;4.342;2024-02-21T09:15:05;9.90;99.90
17348;DHT22;8791;50.876;4.342;2024-02-21T09:17:33;10.00;99.90
17348;DHT22;8791;50.876;4.342;2024-02-21T09:20:01;10.00;99.90
17348;DHT22;8791;50.876;4.342;2024-02-21T09:22:29;10.10;99.90
17348;DHT22;8791;50.876;4.342;2024-02-21T09:24:57;10.10;99.90
17348;DHT22;8791;50.876;4.342;2024-02-21T09:27:24;10.20;99.90
17348;DHT22;8791;50.876;4.342;2024-02-21T09:29:52;10.10;99.90
17348;DHT22;8791;50.876;4.342;2024-02-21T09:32:19;10.10;99.90
17348;DHT22;8791;50.876;4.342;2024-02-21T09:34:47;10.20;99.90
17348;DHT22;8791;50.876;4.342;2024-02-21T09:37:14;10.20;99.90
17348;DHT22;8791;50.876;4.342;2024-02-21T09:39:40;10.20;99.90
17348;DHT22;8791;50.876;4.342;2024-02-21T09:42:11;10.20;99.90
17348;DHT22;8791;50.876;4.342;2024-02-21T09:44:38;10.30;99.90
17348;DHT22;8791;50.876;4.342;2024-02-21T09:47:09;10.30;99.90
17348;DHT22;8791;50.876;4.342;2024-02-21T09:49:37;10.40;99.90
17348;DHT22;8791;50.876;4.342;2024-02-21T09:52:09;10.50;99.90
17348;DHT22;8791;50.876;4.342;2024-02-21T09:54:39;10.50;99.90
17348;DHT22;8791;50.876;4.342;2024-02-21T09:57:10;10.50;99.90
17348;DHT22;8791;50.876;4.342;2024-02-21T09:59:37;10.40;99.90
17348;DHT22;8791;50.876;4.342;2024-02-21T10:02:04;10.50;99.90
17348;DHT22;8791;50.876;4.342;2024-02-21T10:04:32;10.40;99.90
17348;DHT22;8791;50.876;4.342;2024-02-21T10:06:58;10.40;99.90
17348;DHT22;8791;50.876;4.342;2024-02-21T10:09:27;10.40;99.90
17348;DHT22;8791;50.876;4.342;2024-02-21T10:11:56;10.50;99.90
17348;DHT22;8791;50.876;4.342;2024-02-21T10:14:33;10.50;99.90
17348;DHT22;8791;50.876;4.342;2024-02-21T10:17:00;10.60;99.90
17348;DHT22;8791;50.876;4.342;2024-02-21T10:19:28;10.70;99.90
17348;DHT22;8791;50.876;4.342;2024-02-21T10:22:03;10.70;99.90
17348;DHT22;8791;50.876;4.342;2024-02-21T10:24:32;10.60;99.90
17348;DHT22;8791;50.876;4.342;2024-02-21T10:27:04;10.60;99.90
17348;DHT22;8791;50.876;4.342;2024-02-21T10:29:36;10.60;99.90
17348;DHT22;8791;50.876;4.342;2024-02-21T10:32:05;10.60;99.90
17348;DHT22;8791;50.876;4.342;2024-02-21T10:34:33;10.60;99.90
17348;DHT22;8791;50.876;4.342;2024-02-21T10:37:02;10.60;99.90
17348;DHT22;8791;50.876;4.342;2024-02-21T10:39:30;10.60;99.90
17348;DHT22;8791;50.876;4.342;2024-02-21T10:42:00;10.50;99.90
17348;DHT22;8791;50.876;4.342;2024-02-21T10:44:30;10.40;99.90
17348;DHT22;8791;50.876;4.342;2024-02-21T10:46:57;10.40;99.90
17348;DHT22;8791;50.876;4.342;2024-02-21T10:49:25;10.40;99.90
17348;DHT22;8791;50.876;4.342;2024-02-21T10:51:55;10.40;99.90
17348;DHT22;8791;50.876;4.342;2024-02-21T10:54:34;10.40;99.90
17348;DHT22;8791;50.876;4.342;2024-02-21T10:57:08;10.50;99.90
17348;DHT22;8791;50.876;4.342;2024-02-21T10:59:37;10.60;99.90
17348;DHT22;8791;50.876;4.342;2024-02-21T11:02:06;10.60;99.90
17348;DHT22;8791;50.876;4.342;2024-02-21T11:04:33;10.60;99.90
17348;DHT22;8791;50.876;4.342;2024-02-21T11:07:03;10.60;99.90
17348;DHT22;8791;50.876;4.342;2024-02-21T11:09:32;10.80;99.90
17348;DHT22;8791;50.876;4.342;2024-02-21T11:12:02;10.80;99.90
17348;DHT22;8791;50.876;4.342;2024-02-21T11:14:30;10.90;99.90
17348;DHT22;8791;50.876;4.342;2024-02-21T11:17:01;10.80;99.90
17348;DHT22;8791;50.876;4.342;2024-02-21T11:19:30;10.80;99.90
17348;DHT22;8791;50.876;4.342;2024-02-21T11:21:58;10.70;99.90
17348;DHT22;8791;50.876;4.342;2024-02-21T11:24:28;10.60;99.90
17348;DHT22;8791;50.876;4.342;2024-02-21T11:26:56;10.60;99.90
17348;DHT22;8791;50.876;4.342;2024-02-21T11:29:23;10.60;99.90
17348;DHT22;8791;50.876;4.342;2024-02-21T11:31:52;10.60;99.90
17348;DHT22;8791;50.876;4.342;2024-02-21T11:34:19;10.60;99.90
17348;DHT22;8791;50.876;4.342;2024-02-21T11:36:47;10.70;99.90
17348;DHT22;8791;50.876;4.342;2024-02-21T11:39:21;10.70;99.90
17348;DHT22;8791;50.876;4.342;2024-02-21T11:42:01;10.70;99.90
17348;DHT22;8791;50.876;4.342;2024-02-21T11:44:29;10.60;99.90
17348;DHT22;8791;50.876;4.342;2024-02-21T11:46:57;10.60;99.90
17348;DHT22;8791;50.876;4.342;2024-02-21T11:49:25;10.70;99.90
17348;DHT22;8791;50.876;4.342;2024-02-21T11:51:58;10.70;99.90
17348;DHT22;8791;50.876;4.342;2024-02-21T11:54:26;10.70;99.90
17348;DHT22;8791;50.876;4.342;2024-02-21T11:56:53;10.60;99.90
17348;DHT22;8791;50.876;4.342;2024-02-21T11:59:20;10.50;99.90
17348;DHT22;8791;50.876;4.342;2024-02-21T12:01:47;10.50;99.90
17348;DHT22;8791;50.876;4.342;2024-02-21T12:04:16;10.60;99.90
17348;DHT22;8791;50.876;4.342;2024-02-21T12:06:45;10.70;99.90
17348;DHT22;8791;50.876;4.342;2024-02-21T12:09:14;10.60;99.90
17348;DHT22;8791;50.876;4.342;2024-02-21T12:11:41;10.60;99.90
17348;DHT22;8791;50.876;4.342;2024-02-21T12:14:08;10.70;99.90
17348;DHT22;8791;50.876;4.342;2024-02-21T12:16:35;10.60;99.90
17348;DHT22;8791;50.876;4.342;2024-02-21T12:19:03;10.70;99.90
17348;DHT22;8791;50.876;4.342;2024-02-21T12:21:33;10.70;99.90
17348;DHT22;8791;50.876;4.342;2024-02-21T12:24:12;10.60;99.90
17348;DHT22;8791;50.876;4.342;2024-02-21T12:26:39;10.50;99.90
17348;DHT22;8791;50.876;4.342;2024-02-21T12:29:07;10.60;99.90
17348;DHT22;8791;50.876;4.342;2024-02-21T12:31:36;10.50;99.90
17348;DHT22;8791;50.876;4.342;2024-02-21T12:34:03;10.40;99.90
17348;DHT22;8791;50.876;4.342;2024-02-21T12:36:31;10.50;99.90
17348;DHT22;8791;50.876;4.342;2024-02-21T12:38:58;10.40;99.90
17348;DHT22;8791;50.876;4.342;2024-02-21T12:41:25;10.40;99.90
17348;DHT22;8791;50.876;4.342;2024-02-21T12:43:52;10.50;99.90
17348;DHT22;8791;50.876;4.342;2024-02-21T12:46:19;10.50;99.90
17348;DHT22;8791;50.876;4.342;2024-02-21T12:48:46;10.50;99.90
17348;DHT22;8791;50.876;4.342;2024-02-21T12:51:13;10.60;99.90
17348;DHT22;8791;50.876;4.342;2024-02-21T12:53:42;10.60;99.90
17348;DHT22;8791;50.876;4.342;2024-02-21T12:56:09;10.80;99.90
17348;DHT22;8791;50.876;4.342;2024-02-21T12:58:36;10.70;99.90
17348;DHT22;8791;50.876;4.342;2024-02-21T13:01:03;10.60;99.90
17348;DHT22;8791;50.876;4.342;2024-02-21T13:03:30;10.70;99.90
17348;DHT22;8791;50.876;4.342;2024-02-21T13:05:57;10.70;99.90
17348;DHT22;8791;50.876;4.342;2024-02-21T13:08:24;10.90;99.90
17348;DHT22;8791;50.876;4.342;2024-02-21T13:10:52;11.00;99.90
17348;DHT22;8791;50.876;4.342;2024-02-21T13:13:19;11.00;99.90
17348;DHT22;8791;50.876;4.342;2024-02-21T13:15:46;11.00;99.90
17348;DHT22;8791;50.876;4.342;2024-02-21T13:18:13;10.90;99.90
17348;DHT22;8791;50.876;4.342;2024-02-21T13:20:40;10.90;99.90
17348;DHT22;8791;50.876;4.342;2024-02-21T13:23:07;10.80;99.90
17348;DHT22;8791;50.876;4.342;2024-02-21T13:25:33;10.80;99.90
17348;DHT22;8791;50.876;4.342;2024-02-21T13:28:02;10.90;99.90
17348;DHT22;8791;50.876;4.342;2024-02-21T13:30:29;10.90;99.90
17348;DHT22;8791;50.876;4.342;2024-02-21T13:32:56;10.90;99.90
17348;DHT22;8791;50.876;4.342;2024-02-21T13:35:23;11.00;99.90
17348;DHT22;8791;50.876;4.342;2024-02-21T13:37:50;11.00;99.90
17348;DHT22;8791;50.876;4.342;2024-02-21T13:40:17;11.00;99.90
17348;DHT22;8791;50.876;4.342;2024-02-21T13:42:43;11.00;99.90
17348;DHT22;8791;50.876;4.342;2024-02-21T13:45:12;11.00;99.90
17348;DHT22;8791;50.876;4.342;2024-02-21T13:47:39;10.90;99.90
17348;DHT22;8791;50.876;4.342;2024-02-21T13:50:06;10.90;99.90
17348;DHT22;8791;50.876;4.342;2024-02-21T13:52:36;10.90;99.90
17348;DHT22;8791;50.876;4.342;2024-02-21T13:55:03;10.90;99.90
17348;DHT22;8791;50.876;4.342;2024-02-21T13:57:34;10.80;99.90
17348;DHT22;8791;50.876;4.342;2024-02-21T14:00:00;10.70;99.90
17348;DHT22;8791;50.876;4.342;2024-02-21T14:02:29;10.70;99.90
17348;DHT22;8791;50.876;4.342;2024-02-21T14:04:56;10.60;99.90
17348;DHT22;8791;50.876;4.342;2024-02-21T14:07:23;10.60;99.90
17348;DHT22;8791;50.876;4.342;2024-02-21T14:09:50;10.60;99.90
17348;DHT22;8791;50.876;4.342;2024-02-21T14:12:17;10.60;99.90
17348;DHT22;8791;50.876;4.342;2024-02-21T14:14:46;10.50;99.90
17348;DHT22;8791;50.876;4.342;2024-02-21T14:17:12;10.60;99.90
17348;DHT22;8791;50.876;4.342;2024-02-21T14:19:41;10.50;99.90
17348;DHT22;8791;50.876;4.342;2024-02-21T14:22:08;10.40;99.90
17348;DHT22;8791;50.876;4.342;2024-02-21T14:24:36;10.50;99.90
17348;DHT22;8791;50.876;4.342;2024-02-21T14:27:04;10.50;99.90
17348;DHT22;8791;50.876;4.342;2024-02-21T14:29:31;10.40;99.90
17348;DHT22;8791;50.876;4.342;2024-02-21T14:31:57;10.30;99.90
17348;DHT22;8791;50.876;4.342;2024-02-21T14:34:24;10.40;99.90
17348;DHT22;8791;50.876;4.342;2024-02-21T14:36:53;10.30;99.90
17348;DHT22;8791;50.876;4.342;2024-02-21T14:39:20;10.30;99.90
17348;DHT22;8791;50.876;4.342;2024-02-21T14:41:47;10.30;99.90
17348;DHT22;8791;50.876;4.342;2024-02-21T14:44:14;10.20;99.90
17348;DHT22;8791;50.876;4.342;2024-02-21T14:46:42;10.10;99.90
17348;DHT22;8791;50.876;4.342;2024-02-21T14:49:09;10.20;99.90
17348;DHT22;8791;50.876;4.342;2024-02-21T14:51:37;10.30;99.90
17348;DHT22;8791;50.876;4.342;2024-02-21T14:54:05;10.20;99.90
17348;DHT22;8791;50.876;4.342;2024-02-21T14:56:32;10.20;99.90
17348;DHT22;8791;50.876;4.342;2024-02-21T14:58:59;10.10;99.90
17348;DHT22;8791;50.876;4.342;2024-02-21T15:01:25;10.00;99.90
17348;DHT22;8791;50.876;4.342;2024-02-21T15:03:52;10.00;99.90
17348;DHT22;8791;50.876;4.342;2024-02-21T15:06:19;10.00;99.90
17348;DHT22;8791;50.876;4.342;2024-02-21T15:08:46;10.00;99.90
17348;DHT22;8791;50.876;4.342;2024-02-21T15:11:15;9.90;99.90
17348;DHT22;8791;50.876;4.342;2024-02-21T15:13:43;10.00;99.90
17348;DHT22;8791;50.876;4.342;2024-02-21T15:16:11;10.10;99.90
17348;DHT22;8791;50.876;4.342;2024-02-21T15:18:38;10.00;99.90
17348;DHT22;8791;50.876;4.342;2024-02-21T15:21:05;9.90;99.90
17348;DHT22;8791;50.876;4.342;2024-02-21T15:23:32;10.00;99.90
17348;DHT22;8791;50.876;4.342;2024-02-21T15:25:59;10.00;99.90
17348;DHT22;8791;50.876;4.342;2024-02-21T15:28:27;9.90;99.90
17348;DHT22;8791;50.876;4.342;2024-02-21T15:30:55;9.80;99.90
17348;DHT22;8791;50.876;4.342;2024-02-21T15:33:22;9.90;99.90
17348;DHT22;8791;50.876;4.342;2024-02-21T15:35:49;9.90;99.90
17348;DHT22;8791;50.876;4.342;2024-02-21T15:38:16;9.90;99.90
17348;DHT22;8791;50.876;4.342;2024-02-21T15:40:43;9.80;99.90
17348;DHT22;8791;50.876;4.342;2024-02-21T15:43:10;9.80;99.90
17348;DHT22;8791;50.876;4.342;2024-02-21T15:45:38;9.90;99.90
17348;DHT22;8791;50.876;4.342;2024-02-21T15:48:06;9.80;99.90
17348;DHT22;8791;50.876;4.342;2024-02-21T15:50:33;9.80;99.90
17348;DHT22;8791;50.876;4.342;2024-02-21T15:53:00;9.80;99.90
17348;DHT22;8791;50.876;4.342;2024-02-21T15:55:27;9.80;99.90
17348;DHT22;8791;50.876;4.342;2024-02-21T15:57:54;9.80;99.90